sensor_id;sensor_type;location;lat;lon;timestamp;temperature;humidity
14401;DHT22;7285;50.894;5.462;2022-10-26T00:01:03;11.60;99.90
14401;DHT22;7285;50.894;5.462;2022-10-26T00:03:30;11.60;99.90
14401;DHT22;7285;50.894;5.462;2022-10-26T00:06:05;11.60;99.90
14401;DHT22;7285;50.894;5.462;2022-10-26T00:08:32;11.70;99.90
14401;DHT22;7285;50.894;5.462;2022-10-26T00:10:59;11.70;99.90
14401;DHT22;7285;50.894;5.462;2022-10-26T00:13:26;11.70;1.00
14401;DHT22;7285;50.894;5.462;2022-10-26T00:15:54;11.70;1.00
14401;DHT22;7285;50.894;5.462;2022-10-26T00:18:22;11.70;1.00
14401;DHT22;7285;50.894;5.462;2022-10-26T00:20:49;11.70;1.00
14401;DHT22;7285;50.894;5.462;2022-10-26T00:23:16;11.70;1.00
14401;DHT22;7285;50.894;5.462;2022-10-26T00:25:43;11.70;99.90
14401;DHT22;7285;50.894;5.462;2022-10-26T00:28:10;11.70;99.90
14401;DHT22;7285;50.894;5.462;2022-10-26T00:30:38;11.70;99.90
14401;DHT22;7285;50.894;5.462;2022-10-26T00:33:05;11.70;99.90
14401;DHT22;7285;50.894;5.462;2022-10-26T00:35:33;11.70;99.90
14401;DHT22;7285;50.894;5.462;2022-10-26T00:38:00;11.70;99.90
14401;DHT22;7285;50.894;5.462;2022-10-26T00:40:28;11.70;99.90
14401;DHT22;7285;50.894;5.462;2022-10-26T00:42:55;11.70;99.90
14401;DHT22;7285;50.894;5.462;2022-10-26T00:45:23;11.70;99.90
14401;DHT22;7285;50.894;5.462;2022-10-26T00:47:54;11.70;99.90
14401;DHT22;7285;50.894;5.462;2022-10-26T00:50:25;11.60;99.90
14401;DHT22;7285;50.894;5.462;2022-10-26T00:52:55;11.70;1.00
14401;DHT22;7285;50.894;5.462;2022-10-26T00:55:27;11.60;1.00
14401;DHT22;7285;50.894;5.462;2022-10-26T00:57:55;11.70;1.00
14401;DHT22;7285;50.894;5.462;2022-10-26T01:00:22;11.70;1.00
14401;DHT22;7285;50.894;5.462;2022-10-26T01:02:51;11.70;19.40
14401;DHT22;7285;50.894;5.462;2022-10-26T01:05:19;11.70;27.60
14401;DHT22;7285;50.894;5.462;2022-10-26T01:07:46;11.70;99.90
14401;DHT22;7285;50.894;5.462;2022-10-26T01:10:15;11.80;99.90
14401;DHT22;7285;50.894;5.462;2022-10-26T01:12:43;11.80;1.00
14401;DHT22;7285;50.894;5.462;2022-10-26T01:15:11;11.80;1.00
14401;DHT22;7285;50.894;5.462;2022-10-26T01:17:51;11.80;1.00
14401;DHT22;7285;50.894;5.462;2022-10-26T01:20:42;11.80;1.00
14401;DHT22;7285;50.894;5.462;2022-10-26T01:23:18;11.90;1.00
14401;DHT22;7285;50.894;5.462;2022-10-26T01:26:15;11.90;1.00
14401;DHT22;7285;50.894;5.462;2022-10-26T01:29:09;11.90;1.00
14401;DHT22;7285;50.894;5.462;2022-10-26T01:31:41;11.90;1.00
14401;DHT22;7285;50.894;5.462;2022-10-26T01:34:13;11.90;1.00
14401;DHT22;7285;50.894;5.462;2022-10-26T01:36:43;12.00;1.00
14401;DHT22;7285;50.894;5.462;2022-10-26T01:39:15;12.00;1.00
14401;DHT22;7285;50.894;5.462;2022-10-26T01:41:45;12.00;99.90
14401;DHT22;7285;50.894;5.462;2022-10-26T01:44:17;12.00;99.90
14401;DHT22;7285;50.894;5.462;2022-10-26T01:46:48;12.00;99.90
14401;DHT22;7285;50.894;5.462;2022-10-26T01:49:20;12.00;99.90
14401;DHT22;7285;50.894;5.462;2022-10-26T01:51:48;12.00;99.90
14401;DHT22;7285;50.894;5.462;2022-10-26T01:54:16;12.00;99.90
14401;DHT22;7285;50.894;5.462;2022-10-26T01:56:45;12.00;99.90
14401;DHT22;7285;50.894;5.462;2022-10-26T01:59:21;12.00;99.90
14401;DHT22;7285;50.894;5.462;2022-10-26T02:02:19;12.10;99.90
14401;DHT22;7285;50.894;5.462;2022-10-26T02:05:02;12.10;99.90
14401;DHT22;7285;50.894;5.462;2022-10-26T02:07:37;12.10;99.90
14401;DHT22;7285;50.894;5.462;2022-10-26T02:10:12;12.20;99.90
14401;DHT22;7285;50.894;5.462;2022-10-26T02:12:51;12.20;1.00
14401;DHT22;7285;50.894;5.462;2022-10-26T02:15:24;12.20;1.00
14401;DHT22;7285;50.894;5.462;2022-10-26T02:17:57;12.30;1.00
14401;DHT22;7285;50.894;5.462;2022-10-26T02:20:26;12.20;1.00
14401;DHT22;7285;50.894;5.462;2022-10-26T02:22:55;12.20;74.30
14401;DHT22;7285;50.894;5.462;2022-10-26T02:25:25;12.30;16.20
14401;DHT22;7285;50.894;5.462;2022-10-26T02:27:54;12.30;1.00
14401;DHT22;7285;50.894;5.462;2022-10-26T02:30:22;12.30;1.00
14401;DHT22;7285;50.894;5.462;2022-10-26T02:32:51;12.30;1.00
14401;DHT22;7285;50.894;5.462;2022-10-26T02:35:23;12.30;1.00
14401;DHT22;7285;50.894;5.462;2022-10-26T02:37:52;12.30;1.00
14401;DHT22;7285;50.894;5.462;2022-10-26T02:40:22;12.30;1.00
14401;DHT22;7285;50.894;5.462;2022-10-26T02:42:51;12.30;1.00
14401;DHT22;7285;50.894;5.462;2022-10-26T02:45:21;12.20;1.00
14401;DHT22;7285;50.894;5.462;2022-10-26T02:47:50;12.30;1.00
14401;DHT22;7285;50.894;5.462;2022-10-26T02:50:20;12.30;1.00
14401;DHT22;7285;50.894;5.462;2022-10-26T02:52:56;12.30;1.00
14401;DHT22;7285;50.894;5.462;2022-10-26T02:55:27;12.30;1.00
14401;DHT22;7285;50.894;5.462;2022-10-26T02:57:59;12.30;1.00
14401;DHT22;7285;50.894;5.462;2022-10-26T03:00:28;12.30;1.00
14401;DHT22;7285;50.894;5.462;2022-10-26T03:02:57;12.40;15.60
14401;DHT22;7285;50.894;5.462;2022-10-26T03:05:30;12.40;1.00
14401;DHT22;7285;50.894;5.462;2022-10-26T03:07:59;12.40;1.00
14401;DHT22;7285;50.894;5.462;2022-10-26T03:10:26;12.40;1.00
14401;DHT22;7285;50.894;5.462;2022-10-26T03:12:53;12.40;1.00
14401;DHT22;7285;50.894;5.462;2022-10-26T03:15:20;12.40;1.00
14401;DHT22;7285;50.894;5.462;2022-10-26T03:17:47;12.40;1.00
14401;DHT22;7285;50.894;5.462;2022-10-26T03:20:14;12.50;1.00
14401;DHT22;7285;50.894;5.462;2022-10-26T03:22:42;12.50;99.90
14401;DHT22;7285;50.894;5.462;2022-10-26T03:25:09;12.60;76.30
14401;DHT22;7285;50.894;5.462;2022-10-26T03:27:36;12.60;1.00
14401;DHT22;7285;50.894;5.462;2022-10-26T03:30:04;12.60;1.00
14401;DHT22;7285;50.894;5.462;2022-10-26T03:32:31;12.60;1.00
14401;DHT22;7285;50.894;5.462;2022-10-26T03:34:58;12.70;1.00
14401;DHT22;7285;50.894;5.462;2022-10-26T03:37:25;12.70;99.90
14401;DHT22;7285;50.894;5.462;2022-10-26T03:39:53;12.80;1.00
14401;DHT22;7285;50.894;5.462;2022-10-26T03:42:20;12.90;1.00
14401;DHT22;7285;50.894;5.462;2022-10-26T03:44:46;13.00;99.90
14401;DHT22;7285;50.894;5.462;2022-10-26T03:47:13;13.00;99.90
14401;DHT22;7285;50.894;5.462;2022-10-26T03:49:40;13.10;48.30
14401;DHT22;7285;50.894;5.462;2022-10-26T03:52:07;13.20;1.00
14401;DHT22;7285;50.894;5.462;2022-10-26T03:54:34;13.20;1.00
14401;DHT22;7285;50.894;5.462;2022-10-26T03:57:02;13.20;1.00
14401;DHT22;7285;50.894;5.462;2022-10-26T03:59:29;13.30;1.00
14401;DHT22;7285;50.894;5.462;2022-10-26T04:01:55;13.40;99.90
14401;DHT22;7285;50.894;5.462;2022-10-26T04:04:22;13.50;99.90
14401;DHT22;7285;50.894;5.462;2022-10-26T04:06:49;13.60;99.90
14401;DHT22;7285;50.894;5.462;2022-10-26T04:09:16;13.60;32.60
14401;DHT22;7285;50.894;5.462;2022-10-26T04:11:43;13.60;86.10
14401;DHT22;7285;50.894;5.462;2022-10-26T04:14:11;13.60;36.90
14401;DHT22;7285;50.894;5.462;2022-10-26T04:16:38;13.70;1.00
14401;DHT22;7285;50.894;5.462;2022-10-26T04:19:05;13.70;1.00
14401;DHT22;7285;50.894;5.462;2022-10-26T04:21:32;13.70;1.00
14401;DHT22;7285;50.894;5.462;2022-10-26T04:23:59;13.70;1.00
14401;DHT22;7285;50.894;5.462;2022-10-26T04:26:26;13.70;1.00
14401;DHT22;7285;50.894;5.462;2022-10-26T04:28:53;13.70;1.00
14401;DHT22;7285;50.894;5.462;2022-10-26T04:31:22;13.90;1.00
14401;DHT22;7285;50.894;5.462;2022-10-26T04:33:48;14.00;1.00
14401;DHT22;7285;50.894;5.462;2022-10-26T04:36:15;14.20;1.00
14401;DHT22;7285;50.894;5.462;2022-10-26T04:38:42;14.20;1.00
14401;DHT22;7285;50.894;5.462;2022-10-26T04:41:09;14.20;1.00
14401;DHT22;7285;50.894;5.462;2022-10-26T04:43:36;14.40;1.00
14401;DHT22;7285;50.894;5.462;2022-10-26T04:46:03;14.50;99.90
14401;DHT22;7285;50.894;5.462;2022-10-26T04:48:31;14.50;99.90
14401;DHT22;7285;50.894;5.462;2022-10-26T04:50:58;14.60;99.90
14401;DHT22;7285;50.894;5.462;2022-10-26T04:53:25;14.80;99.90
14401;DHT22;7285;50.894;5.462;2022-10-26T04:55:55;14.80;45.70
14401;DHT22;7285;50.894;5.462;2022-10-26T04:58:22;14.90;1.00
14401;DHT22;7285;50.894;5.462;2022-10-26T05:00:49;14.90;1.00
14401;DHT22;7285;50.894;5.462;2022-10-26T05:03:16;15.00;1.00
14401;DHT22;7285;50.894;5.462;2022-10-26T05:05:44;15.10;1.00
14401;DHT22;7285;50.894;5.462;2022-10-26T05:08:12;15.20;1.00
14401;DHT22;7285;50.894;5.462;2022-10-26T05:10:39;15.20;1.00
14401;DHT22;7285;50.894;5.462;2022-10-26T05:13:06;15.20;1.00
14401;DHT22;7285;50.894;5.462;2022-10-26T05:15:33;15.20;25.50
14401;DHT22;7285;50.894;5.462;2022-10-26T05:18:01;15.10;99.90
14401;DHT22;7285;50.894;5.462;2022-10-26T05:20:30;15.10;99.90
14401;DHT22;7285;50.894;5.462;2022-10-26T05:22:59;15.00;99.90
14401;DHT22;7285;50.894;5.462;2022-10-26T05:25:28;15.00;1.00
14401;DHT22;7285;50.894;5.462;2022-10-26T05:27:56;14.90;1.00
14401;DHT22;7285;50.894;5.462;2022-10-26T05:30:24;14.80;1.00
14401;DHT22;7285;50.894;5.462;2022-10-26T05:32:53;14.90;1.00
14401;DHT22;7285;50.894;5.462;2022-10-26T05:35:20;14.80;1.00
14401;DHT22;7285;50.894;5.462;2022-10-26T05:37:46;14.80;1.00
14401;DHT22;7285;50.894;5.462;2022-10-26T05:40:15;14.80;1.00
14401;DHT22;7285;50.894;5.462;2022-10-26T05:42:42;14.90;1.00
14401;DHT22;7285;50.894;5.462;2022-10-26T05:45:09;14.90;1.00
14401;DHT22;7285;50.894;5.462;2022-10-26T05:47:37;14.90;1.00
14401;DHT22;7285;50.894;5.462;2022-10-26T05:50:04;14.90;1.00
14401;DHT22;7285;50.894;5.462;2022-10-26T05:52:37;14.90;1.00
14401;DHT22;7285;50.894;5.462;2022-10-26T05:55:05;14.90;1.00
14401;DHT22;7285;50.894;5.462;2022-10-26T05:57:35;14.90;99.90
14401;DHT22;7285;50.894;5.462;2022-10-26T06:00:06;15.00;99.90
14401;DHT22;7285;50.894;5.462;2022-10-26T06:02:39;15.00;99.90
14401;DHT22;7285;50.894;5.462;2022-10-26T06:05:09;15.00;99.90
14401;DHT22;7285;50.894;5.462;2022-10-26T06:07:39;14.90;99.90
14401;DHT22;7285;50.894;5.462;2022-10-26T06:10:08;14.90;99.90
14401;DHT22;7285;50.894;5.462;2022-10-26T06:12:38;14.90;99.90
14401;DHT22;7285;50.894;5.462;2022-10-26T06:15:06;14.90;99.90
14401;DHT22;7285;50.894;5.462;2022-10-26T06:17:41;14.90;99.90
14401;DHT22;7285;50.894;5.462;2022-10-26T06:20:23;14.90;99.90
14401;DHT22;7285;50.894;5.462;2022-10-26T06:23:00;14.90;99.90
14401;DHT22;7285;50.894;5.462;2022-10-26T06:25:37;14.90;1.00
14401;DHT22;7285;50.894;5.462;2022-10-26T06:28:17;14.80;1.00
14401;DHT22;7285;50.894;5.462;2022-10-26T06:30:46;14.80;1.00
14401;DHT22;7285;50.894;5.462;2022-10-26T06:33:13;14.70;1.00
14401;DHT22;7285;50.894;5.462;2022-10-26T06:35:45;14.80;1.00
14401;DHT22;7285;50.894;5.462;2022-10-26T06:38:18;14.70;1.00
14401;DHT22;7285;50.894;5.462;2022-10-26T06:40:49;14.70;1.00
14401;DHT22;7285;50.894;5.462;2022-10-26T06:43:22;14.60;1.00
14401;DHT22;7285;50.894;5.462;2022-10-26T06:45:53;14.60;1.00
14401;DHT22;7285;50.894;5.462;2022-10-26T06:48:24;14.60;1.00
14401;DHT22;7285;50.894;5.462;2022-10-26T06:50:54;14.50;1.00
14401;DHT22;7285;50.894;5.462;2022-10-26T06:53:25;14.50;1.00
14401;DHT22;7285;50.894;5.462;2022-10-26T06:55:55;14.60;1.00
14401;DHT22;7285;50.894;5.462;2022-10-26T06:58:27;14.60;1.00
14401;DHT22;7285;50.894;5.462;2022-10-26T07:00:55;14.60;1.00
14401;DHT22;7285;50.894;5.462;2022-10-26T07:03:22;14.60;1.00
14401;DHT22;7285;50.894;5.462;2022-10-26T07:05:49;14.60;1.00
14401;DHT22;7285;50.894;5.462;2022-10-26T07:08:16;14.60;1.00
14401;DHT22;7285;50.894;5.462;2022-10-26T07:10:43;14.60;1.00
14401;DHT22;7285;50.894;5.462;2022-10-26T07:13:10;14.70;1.00
14401;DHT22;7285;50.894;5.462;2022-10-26T07:15:39;14.80;1.00
14401;DHT22;7285;50.894;5.462;2022-10-26T07:18:07;14.70;1.00
14401;DHT22;7285;50.894;5.462;2022-10-26T07:20:36;14.70;1.00
14401;DHT22;7285;50.894;5.462;2022-10-26T07:23:04;14.70;1.00
14401;DHT22;7285;50.894;5.462;2022-10-26T07:25:33;14.70;1.00
14401;DHT22;7285;50.894;5.462;2022-10-26T07:28:03;14.80;1.00
14401;DHT22;7285;50.894;5.462;2022-10-26T07:30:30;14.80;1.00
14401;DHT22;7285;50.894;5.462;2022-10-26T07:32:59;14.90;1.00
14401;DHT22;7285;50.894;5.462;2022-10-26T07:35:26;14.90;1.00
14401;DHT22;7285;50.894;5.462;2022-10-26T07:37:56;15.00;1.00
14401;DHT22;7285;50.894;5.462;2022-10-26T07:40:23;15.10;1.00
14401;DHT22;7285;50.894;5.462;2022-10-26T07:42:50;15.20;1.00
14401;DHT22;7285;50.894;5.462;2022-10-26T07:45:17;15.30;1.00
14401;DHT22;7285;50.894;5.462;2022-10-26T07:47:44;15.30;1.00
14401;DHT22;7285;50.894;5.462;2022-10-26T07:50:14;15.40;1.00
14401;DHT22;7285;50.894;5.462;2022-10-26T07:52:41;15.50;1.00
14401;DHT22;7285;50.894;5.462;2022-10-26T07:55:09;15.60;1.00
14401;DHT22;7285;50.894;5.462;2022-10-26T07:57:37;15.60;1.00
14401;DHT22;7285;50.894;5.462;2022-10-26T08:00:05;15.70;1.00
14401;DHT22;7285;50.894;5.462;2022-10-26T08:02:32;15.70;99.90
14401;DHT22;7285;50.894;5.462;2022-10-26T08:04:59;15.70;99.90
14401;DHT22;7285;50.894;5.462;2022-10-26T08:07:27;15.80;1.00
14401;DHT22;7285;50.894;5.462;2022-10-26T08:09:54;15.90;99.90
14401;DHT22;7285;50.894;5.462;2022-10-26T08:12:21;16.00;99.90
14401;DHT22;7285;50.894;5.462;2022-10-26T08:14:51;16.00;99.90
14401;DHT22;7285;50.894;5.462;2022-10-26T08:17:17;16.10;99.90
14401;DHT22;7285;50.894;5.462;2022-10-26T08:19:46;16.30;99.90
14401;DHT22;7285;50.894;5.462;2022-10-26T08:22:14;16.30;99.90
14401;DHT22;7285;50.894;5.462;2022-10-26T08:24:42;16.40;99.90
14401;DHT22;7285;50.894;5.462;2022-10-26T08:27:11;16.40;99.90
14401;DHT22;7285;50.894;5.462;2022-10-26T08:29:38;16.50;99.90
14401;DHT22;7285;50.894;5.462;2022-10-26T08:32:05;16.60;99.90
14401;DHT22;7285;50.894;5.462;2022-10-26T08:34:32;16.60;99.90
14401;DHT22;7285;50.894;5.462;2022-10-26T08:36:58;16.70;99.90
14401;DHT22;7285;50.894;5.462;2022-10-26T08:39:25;16.80;99.90
14401;DHT22;7285;50.894;5.462;2022-10-26T08:42:00;16.90;99.90
14401;DHT22;7285;50.894;5.462;2022-10-26T08:44:32;17.00;1.00
14401;DHT22;7285;50.894;5.462;2022-10-26T08:47:05;17.00;1.00
14401;DHT22;7285;50.894;5.462;2022-10-26T08:49:40;17.10;15.70
14401;DHT22;7285;50.894;5.462;2022-10-26T08:52:11;17.30;27.90
14401;DHT22;7285;50.894;5.462;2022-10-26T08:54:42;17.30;1.00
14401;DHT22;7285;50.894;5.462;2022-10-26T08:57:15;17.40;1.00
14401;DHT22;7285;50.894;5.462;2022-10-26T08:59:48;17.50;1.00
14401;DHT22;7285;50.894;5.462;2022-10-26T09:02:16;17.70;1.00
14401;DHT22;7285;50.894;5.462;2022-10-26T09:04:44;17.80;1.00
14401;DHT22;7285;50.894;5.462;2022-10-26T09:07:18;17.90;1.00
14401;DHT22;7285;50.894;5.462;2022-10-26T09:09:56;17.90;1.00
14401;DHT22;7285;50.894;5.462;2022-10-26T09:12:38;18.00;1.00
14401;DHT22;7285;50.894;5.462;2022-10-26T09:15:13;18.10;1.00
14401;DHT22;7285;50.894;5.462;2022-10-26T09:17:52;18.20;1.00
14401;DHT22;7285;50.894;5.462;2022-10-26T09:20:51;18.30;1.00
14401;DHT22;7285;50.894;5.462;2022-10-26T09:23:32;18.50;1.00
14401;DHT22;7285;50.894;5.462;2022-10-26T09:26:03;18.60;1.00
14401;DHT22;7285;50.894;5.462;2022-10-26T09:28:35;18.70;1.00
14401;DHT22;7285;50.894;5.462;2022-10-26T09:31:04;18.80;1.00
14401;DHT22;7285;50.894;5.462;2022-10-26T09:33:34;18.90;1.00
14401;DHT22;7285;50.894;5.462;2022-10-26T09:36:04;19.00;1.00
14401;DHT22;7285;50.894;5.462;2022-10-26T09:38:37;19.00;1.00
14401;DHT22;7285;50.894;5.462;2022-10-26T09:41:11;19.20;1.00
14401;DHT22;7285;50.894;5.462;2022-10-26T09:43:43;19.30;1.00
14401;DHT22;7285;50.894;5.462;2022-10-26T09:46:19;19.40;1.00
14401;DHT22;7285;50.894;5.462;2022-10-26T09:48:49;19.40;99.90
14401;DHT22;7285;50.894;5.462;2022-10-26T09:51:18;19.50;99.90
14401;DHT22;7285;50.894;5.462;2022-10-26T09:53:46;19.60;99.90
14401;DHT22;7285;50.894;5.462;2022-10-26T09:56:14;19.70;99.90
14401;DHT22;7285;50.894;5.462;2022-10-26T09:58:45;19.70;99.90
14401;DHT22;7285;50.894;5.462;2022-10-26T10:01:21;19.90;99.90
14401;DHT22;7285;50.894;5.462;2022-10-26T10:04:08;19.90;99.90
14401;DHT22;7285;50.894;5.462;2022-10-26T10:06:35;20.00;99.90
14401;DHT22;7285;50.894;5.462;2022-10-26T10:09:08;20.10;99.90
14401;DHT22;7285;50.894;5.462;2022-10-26T10:11:37;20.40;99.90
14401;DHT22;7285;50.894;5.462;2022-10-26T10:14:08;20.50;99.90
14401;DHT22;7285;50.894;5.462;2022-10-26T10:16:39;20.80;99.90
14401;DHT22;7285;50.894;5.462;2022-10-26T10:19:21;20.70;99.90
14401;DHT22;7285;50.894;5.462;2022-10-26T10:21:50;20.70;99.90
14401;DHT22;7285;50.894;5.462;2022-10-26T10:24:28;20.80;99.90
14401;DHT22;7285;50.894;5.462;2022-10-26T10:27:00;20.80;99.90
14401;DHT22;7285;50.894;5.462;2022-10-26T10:29:30;20.90;99.90
14401;DHT22;7285;50.894;5.462;2022-10-26T10:31:59;20.90;99.90
14401;DHT22;7285;50.894;5.462;2022-10-26T10:34:28;21.20;99.90
14401;DHT22;7285;50.894;5.462;2022-10-26T10:36:55;21.20;99.90
14401;DHT22;7285;50.894;5.462;2022-10-26T10:39:33;21.20;99.90
14401;DHT22;7285;50.894;5.462;2022-10-26T10:42:00;21.30;99.90
14401;DHT22;7285;50.894;5.462;2022-10-26T10:44:31;21.60;99.90
14401;DHT22;7285;50.894;5.462;2022-10-26T10:46:59;21.70;99.90
14401;DHT22;7285;50.894;5.462;2022-10-26T10:49:28;21.70;99.90
14401;DHT22;7285;50.894;5.462;2022-10-26T10:51:56;21.80;98.50
14401;DHT22;7285;50.894;5.462;2022-10-26T10:54:27;21.90;98.10
14401;DHT22;7285;50.894;5.462;2022-10-26T10:57:02;22.10;99.90
14401;DHT22;7285;50.894;5.462;2022-10-26T10:59:48;22.40;90.90
14401;DHT22;7285;50.894;5.462;2022-10-26T11:02:45;22.70;28.50
14401;DHT22;7285;50.894;5.462;2022-10-26T11:05:25;22.60;17.00
14401;DHT22;7285;50.894;5.462;2022-10-26T11:08:02;22.60;13.60
14401;DHT22;7285;50.894;5.462;2022-10-26T11:10:34;22.60;69.40
14401;DHT22;7285;50.894;5.462;2022-10-26T11:13:09;22.60;1.00
14401;DHT22;7285;50.894;5.462;2022-10-26T11:15:38;22.60;1.00
14401;DHT22;7285;50.894;5.462;2022-10-26T11:18:10;22.80;9.10
14401;DHT22;7285;50.894;5.462;2022-10-26T11:20:43;23.00;16.80
14401;DHT22;7285;50.894;5.462;2022-10-26T11:23:15;23.10;1.00
14401;DHT22;7285;50.894;5.462;2022-10-26T11:25:49;23.30;1.00
14401;DHT22;7285;50.894;5.462;2022-10-26T11:28:25;23.40;1.00
14401;DHT22;7285;50.894;5.462;2022-10-26T11:31:05;23.70;1.00
14401;DHT22;7285;50.894;5.462;2022-10-26T11:33:39;23.80;1.00
14401;DHT22;7285;50.894;5.462;2022-10-26T11:36:09;23.90;1.00
14401;DHT22;7285;50.894;5.462;2022-10-26T11:38:41;24.10;1.00
14401;DHT22;7285;50.894;5.462;2022-10-26T11:41:16;24.10;1.00
14401;DHT22;7285;50.894;5.462;2022-10-26T11:43:45;24.10;1.00
14401;DHT22;7285;50.894;5.462;2022-10-26T11:46:17;24.30;1.00
14401;DHT22;7285;50.894;5.462;2022-10-26T11:48:50;23.90;1.00
14401;DHT22;7285;50.894;5.462;2022-10-26T11:51:31;23.80;1.00
14401;DHT22;7285;50.894;5.462;2022-10-26T11:54:03;23.50;1.00
14401;DHT22;7285;50.894;5.462;2022-10-26T11:56:33;23.50;1.00
14401;DHT22;7285;50.894;5.462;2022-10-26T11:59:01;23.30;1.00
14401;DHT22;7285;50.894;5.462;2022-10-26T12:01:30;23.30;1.00
14401;DHT22;7285;50.894;5.462;2022-10-26T12:04:00;23.30;1.00
14401;DHT22;7285;50.894;5.462;2022-10-26T12:06:30;23.00;1.00
14401;DHT22;7285;50.894;5.462;2022-10-26T12:09:02;23.00;1.00
14401;DHT22;7285;50.894;5.462;2022-10-26T12:11:36;23.30;1.00
14401;DHT22;7285;50.894;5.462;2022-10-26T12:14:10;23.80;1.00
14401;DHT22;7285;50.894;5.462;2022-10-26T12:16:48;24.00;1.00
14401;DHT22;7285;50.894;5.462;2022-10-26T12:19:20;23.70;1.00
14401;DHT22;7285;50.894;5.462;2022-10-26T12:21:49;23.30;1.00
14401;DHT22;7285;50.894;5.462;2022-10-26T12:24:28;23.00;1.00
14401;DHT22;7285;50.894;5.462;2022-10-26T12:26:59;22.90;1.00
14401;DHT22;7285;50.894;5.462;2022-10-26T12:29:36;23.00;1.00
14401;DHT22;7285;50.894;5.462;2022-10-26T12:35:34;23.50;1.00
14401;DHT22;7285;50.894;5.462;2022-10-26T12:38:26;23.60;1.00
14401;DHT22;7285;50.894;5.462;2022-10-26T12:41:25;23.50;1.00
14401;DHT22;7285;50.894;5.462;2022-10-26T12:44:10;23.70;1.00
14401;DHT22;7285;50.894;5.462;2022-10-26T12:46:50;24.60;1.00
14401;DHT22;7285;50.894;5.462;2022-10-26T12:55:46;24.20;1.00
14401;DHT22;7285;50.894;5.462;2022-10-26T12:58:40;25.00;1.00
14401;DHT22;7285;50.894;5.462;2022-10-26T13:01:46;25.00;1.00
14401;DHT22;7285;50.894;5.462;2022-10-26T13:07:15;24.60;1.00
14401;DHT22;7285;50.894;5.462;2022-10-26T13:09:53;24.50;1.00
14401;DHT22;7285;50.894;5.462;2022-10-26T13:12:20;24.90;1.00
14401;DHT22;7285;50.894;5.462;2022-10-26T13:14:55;25.50;1.00
14401;DHT22;7285;50.894;5.462;2022-10-26T13:17:24;26.30;1.00
14401;DHT22;7285;50.894;5.462;2022-10-26T13:19:56;25.50;1.00
14401;DHT22;7285;50.894;5.462;2022-10-26T13:22:23;24.70;1.00
14401;DHT22;7285;50.894;5.462;2022-10-26T13:24:53;24.80;1.00
14401;DHT22;7285;50.894;5.462;2022-10-26T13:27:42;24.60;1.00
14401;DHT22;7285;50.894;5.462;2022-10-26T13:33:07;24.00;1.00
14401;DHT22;7285;50.894;5.462;2022-10-26T13:35:39;23.80;1.00
14401;DHT22;7285;50.894;5.462;2022-10-26T13:38:09;23.60;1.00
14401;DHT22;7285;50.894;5.462;2022-10-26T13:40:39;23.60;1.00
14401;DHT22;7285;50.894;5.462;2022-10-26T13:43:13;23.60;1.00
14401;DHT22;7285;50.894;5.462;2022-10-26T13:45:48;23.20;1.00
14401;DHT22;7285;50.894;5.462;2022-10-26T13:48:18;23.10;1.00
14401;DHT22;7285;50.894;5.462;2022-10-26T13:50:51;23.00;1.00
14401;DHT22;7285;50.894;5.462;2022-10-26T13:53:22;22.80;1.00
14401;DHT22;7285;50.894;5.462;2022-10-26T13:55:53;22.60;1.00
14401;DHT22;7285;50.894;5.462;2022-10-26T13:58:27;22.50;1.00
14401;DHT22;7285;50.894;5.462;2022-10-26T14:01:02;22.40;1.00
14401;DHT22;7285;50.894;5.462;2022-10-26T14:03:30;22.40;1.00
14401;DHT22;7285;50.894;5.462;2022-10-26T14:05:57;22.40;1.00
14401;DHT22;7285;50.894;5.462;2022-10-26T14:08:24;22.30;1.00
14401;DHT22;7285;50.894;5.462;2022-10-26T14:10:55;22.30;1.00
14401;DHT22;7285;50.894;5.462;2022-10-26T14:13:24;22.00;1.00
14401;DHT22;7285;50.894;5.462;2022-10-26T14:15:53;21.90;1.00
14401;DHT22;7285;50.894;5.462;2022-10-26T14:18:23;21.80;1.00
14401;DHT22;7285;50.894;5.462;2022-10-26T14:20:55;21.70;1.00
14401;DHT22;7285;50.894;5.462;2022-10-26T14:23:26;21.70;1.00
14401;DHT22;7285;50.894;5.462;2022-10-26T14:25:55;21.70;1.00
14401;DHT22;7285;50.894;5.462;2022-10-26T14:28:23;21.80;1.00
14401;DHT22;7285;50.894;5.462;2022-10-26T14:30:50;21.80;1.00
14401;DHT22;7285;50.894;5.462;2022-10-26T14:33:19;21.90;1.00
14401;DHT22;7285;50.894;5.462;2022-10-26T14:35:46;21.90;1.00
14401;DHT22;7285;50.894;5.462;2022-10-26T14:38:18;21.90;1.00
14401;DHT22;7285;50.894;5.462;2022-10-26T14:40:47;21.70;1.00
14401;DHT22;7285;50.894;5.462;2022-10-26T14:43:19;21.70;1.00
14401;DHT22;7285;50.894;5.462;2022-10-26T14:45:48;21.60;1.00
14401;DHT22;7285;50.894;5.462;2022-10-26T14:48:26;21.50;1.00
14401;DHT22;7285;50.894;5.462;2022-10-26T14:51:02;21.40;1.00
14401;DHT22;7285;50.894;5.462;2022-10-26T14:53:35;21.20;1.00
14401;DHT22;7285;50.894;5.462;2022-10-26T14:56:04;21.20;1.00
14401;DHT22;7285;50.894;5.462;2022-10-26T14:58:33;21.20;1.00
14401;DHT22;7285;50.894;5.462;2022-10-26T15:04:01;21.10;1.00
14401;DHT22;7285;50.894;5.462;2022-10-26T15:06:43;21.00;1.00
14401;DHT22;7285;50.894;5.462;2022-10-26T15:09:37;20.90;1.00
14401;DHT22;7285;50.894;5.462;2022-10-26T15:12:05;21.00;1.00
14401;DHT22;7285;50.894;5.462;2022-10-26T15:14:35;21.00;1.00
14401;DHT22;7285;50.894;5.462;2022-10-26T15:17:02;21.00;1.00
14401;DHT22;7285;50.894;5.462;2022-10-26T15:19:29;20.90;1.00
14401;DHT22;7285;50.894;5.462;2022-10-26T15:21:56;20.80;1.00
14401;DHT22;7285;50.894;5.462;2022-10-26T15:24:27;20.80;1.00
14401;DHT22;7285;50.894;5.462;2022-10-26T15:26:55;20.60;1.00
14401;DHT22;7285;50.894;5.462;2022-10-26T15:29:36;20.50;1.00
14401;DHT22;7285;50.894;5.462;2022-10-26T15:32:19;20.40;1.00
14401;DHT22;7285;50.894;5.462;2022-10-26T15:34:48;20.30;1.00
14401;DHT22;7285;50.894;5.462;2022-10-26T15:37:15;20.20;1.00
14401;DHT22;7285;50.894;5.462;2022-10-26T15:39:42;20.10;1.00
14401;DHT22;7285;50.894;5.462;2022-10-26T15:42:11;20.00;1.00
14401;DHT22;7285;50.894;5.462;2022-10-26T15:44:40;20.00;1.00
14401;DHT22;7285;50.894;5.462;2022-10-26T15:47:16;19.90;1.00
14401;DHT22;7285;50.894;5.462;2022-10-26T15:49:44;19.80;1.00
14401;DHT22;7285;50.894;5.462;2022-10-26T15:52:10;19.80;1.00
14401;DHT22;7285;50.894;5.462;2022-10-26T15:54:37;19.70;1.00
14401;DHT22;7285;50.894;5.462;2022-10-26T15:57:05;19.70;1.00
14401;DHT22;7285;50.894;5.462;2022-10-26T15:59:34;19.60;1.00
14401;DHT22;7285;50.894;5.462;2022-10-26T16:02:11;19.60;23.40
14401;DHT22;7285;50.894;5.462;2022-10-26T16:04:38;19.50;24.30
14401;DHT22;7285;50.894;5.462;2022-10-26T16:07:06;19.50;1.90
14401;DHT22;7285;50.894;5.462;2022-10-26T16:09:36;19.50;3.10
14401;DHT22;7285;50.894;5.462;2022-10-26T16:12:03;19.40;29.30
14401;DHT22;7285;50.894;5.462;2022-10-26T16:14:30;19.30;52.20
14401;DHT22;7285;50.894;5.462;2022-10-26T16:16:57;19.10;65.90
14401;DHT22;7285;50.894;5.462;2022-10-26T16:19:25;19.00;92.10
14401;DHT22;7285;50.894;5.462;2022-10-26T16:21:52;18.90;99.90
14401;DHT22;7285;50.894;5.462;2022-10-26T16:24:19;18.80;99.90
14401;DHT22;7285;50.894;5.462;2022-10-26T16:26:46;18.70;99.90
14401;DHT22;7285;50.894;5.462;2022-10-26T16:29:13;18.60;99.90
14401;DHT22;7285;50.894;5.462;2022-10-26T16:31:40;18.50;99.90
14401;DHT22;7285;50.894;5.462;2022-10-26T16:34:07;18.40;99.90
14401;DHT22;7285;50.894;5.462;2022-10-26T16:36:35;18.30;99.90
14401;DHT22;7285;50.894;5.462;2022-10-26T16:39:03;18.10;99.90